Time;durP1;ratioP1;P1;durP2;ratioP2;P2;SDS_P1;SDS_P2;PMS_P1;PMS_P2;Temp;Humidity;BMP_temperature;BMP_pressure;BME280_temperature;BME280_humidity;BME280_pressure;Samples;Min_cycle;Max_cycle;Signal;HPM_P1;HPM_P2
2023/04/08 00:00:44;;;;;;;7.28;3.72;;;13.20;60.50;;;;;;6247002;23;20330;-73
2023/04/08 00:03:10;;;;;;;5.65;2.85;;;13.30;60.70;;;;;;6246519;23;20008;-74
2023/04/08 00:05:35;;;;;;;7.95;3.08;;;13.30;60.40;;;;;;6219776;23;20043;-74
2023/04/08 00:08:01;;;;;;;8.73;3.53;;;13.30;60.40;;;;;;6246445;23;20007;-74
2023/04/08 00:10:27;;;;;;;7.05;3.13;;;13.40;60.50;;;;;;6246601;23;20015;-74
2023/04/08 00:12:52;;;;;;;6.20;2.65;;;13.40;60.80;;;;;;6246548;23;20035;-75
2023/04/08 00:15:18;;;;;;;6.25;3.20;;;13.40;60.60;;;;;;6246806;23;20023;-75
2023/04/08 00:17:44;;;;;;;5.05;2.80;;;13.50;60.70;;;;;;6246394;22;20382;-74
2023/04/08 00:20:10;;;;;;;7.60;2.65;;;13.50;60.80;;;;;;6246335;23;20011;-74
2023/04/08 00:22:36;;;;;;;7.22;2.60;;;13.50;61.00;;;;;;6246653;23;20319;-74
2023/04/08 00:25:05;;;;;;;7.78;2.33;;;13.50;61.10;;;;;;6246473;23;20071;-75
2023/04/08 00:27:31;;;;;;;6.13;2.88;;;13.50;61.30;;;;;;6246779;23;20019;-74
2023/04/08 00:29:58;;;;;;;5.55;2.20;;;13.60;61.60;;;;;;6246726;23;20016;-75
2023/04/08 00:32:25;;;;;;;5.57;2.35;;;13.60;61.40;;;;;;6246777;23;20015;-73
2023/04/08 00:34:51;;;;;;;5.88;2.17;;;13.60;61.10;;;;;;6246444;23;20027;-74
2023/04/08 00:37:17;;;;;;;4.38;2.30;;;13.60;61.20;;;;;;6246267;23;20008;-74
2023/04/08 00:39:42;;;;;;;5.85;2.13;;;13.60;61.40;;;;;;6246648;23;20000;-75
2023/04/08 00:42:08;;;;;;;3.88;1.80;;;13.70;61.30;;;;;;6246519;23;20304;-75
2023/04/08 00:44:34;;;;;;;5.28;1.98;;;13.70;61.60;;;;;;6246442;23;19996;-74
2023/04/08 00:47:00;;;;;;;6.10;2.00;;;13.70;61.40;;;;;;6246258;23;20325;-73
2023/04/08 00:49:26;;;;;;;3.72;2.00;;;13.70;61.50;;;;;;6247413;23;20298;-74
2023/04/08 00:51:54;;;;;;;5.22;2.00;;;13.70;61.50;;;;;;6220639;23;20430;-74
2023/04/08 00:54:20;;;;;;;5.07;2.40;;;13.80;61.70;;;;;;6246506;23;19999;-75
2023/04/08 00:56:46;;;;;;;4.95;1.95;;;13.80;61.60;;;;;;6246077;23;20383;-74
2023/04/08 00:59:11;;;;;;;4.28;1.70;;;13.80;61.50;;;;;;6245340;23;20006;-75
2023/04/08 01:01:45;;;;;;;5.10;2.05;;;13.80;61.40;;;;;;6246013;23;20000;-73
2023/04/08 01:04:43;;;;;;;5.18;2.45;;;13.90;61.50;;;;;;6246202;23;20008;-74
2023/04/08 01:07:24;;;;;;;5.10;1.80;;;13.90;62.10;;;;;;6246141;23;20386;-74
2023/04/08 01:10:10;;;;;;;4.53;1.80;;;13.90;61.60;;;;;;6245927;23;19997;-75
2023/04/08 01:12:58;;;;;;;3.92;1.88;;;13.90;61.70;;;;;;6220305;23;20059;-74
2023/04/08 01:15:26;;;;;;;4.38;2.20;;;13.80;62.30;;;;;;6245944;23;20028;-74
2023/04/08 01:17:57;;;;;;;4.07;1.77;;;13.80;61.80;;;;;;6245769;22;20020;-75
2023/04/08 01:20:25;;;;;;;5.28;2.25;;;13.80;61.80;;;;;;6245673;23;20012;-74
2023/04/08 01:22:59;;;;;;;3.42;1.67;;;13.80;61.60;;;;;;6218909;23;20381;-75
2023/04/08 01:25:36;;;;;;;5.57;1.95;;;13.70;62.00;;;;;;6246003;23;20437;-74
2023/04/08 01:28:10;;;;;;;2.55;1.63;;;13.70;61.40;;;;;;6245763;23;20004;-74
2023/04/08 01:30:39;;;;;;;4.60;2.35;;;13.70;61.50;;;;;;6246047;23;20325;-74
2023/04/08 01:33:06;;;;;;;4.35;1.63;;;13.70;61.30;;;;;;6246058;23;20012;-73
2023/04/08 01:35:32;;;;;;;3.88;1.80;;;13.70;61.10;;;;;;6246073;23;20012;-74
2023/04/08 01:38:00;;;;;;;3.60;1.50;;;13.70;61.30;;;;;;6245779;23;20035;-74
2023/04/08 01:40:26;;;;;;;5.15;1.60;;;13.70;61.10;;;;;;6218716;23;20442;-76
2023/04/08 01:42:55;;;;;;;4.53;1.40;;;13.70;61.00;;;;;;6245795;23;20010;-73
2023/04/08 01:45:22;;;;;;;5.65;1.80;;;13.70;61.00;;;;;;6218423;23;20012;-74
2023/04/08 01:47:48;;;;;;;4.72;1.60;;;13.80;60.80;;;;;;6245898;23;20326;-75
2023/04/08 01:50:16;;;;;;;4.38;1.90;;;13.80;60.80;;;;;;6246257;23;20018;-74
2023/04/08 01:52:47;;;;;;;3.03;1.42;;;13.70;60.60;;;;;;6245328;23;20046;-74
2023/04/08 01:55:13;;;;;;;2.55;1.40;;;13.80;60.60;;;;;;6245646;23;20338;-74
2023/04/08 01:57:40;;;;;;;3.08;1.42;;;13.70;60.50;;;;;;6245458;23;20008;-75
2023/04/08 02:00:12;;;;;;;2.60;1.50;;;13.70;60.40;;;;;;6245350;23;20001;-74
2023/04/08 02:02:40;;;;;;;4.53;1.52;;;13.60;60.50;;;;;;6245993;23;20000;-74
2023/04/08 02:05:06;;;;;;;4.05;1.30;;;13.60;60.40;;;;;;6245215;23;20004;-73
2023/04/08 02:07:31;;;;;;;4.85;1.30;;;13.60;60.60;;;;;;6218718;23;20442;-74
2023/04/08 02:09:57;;;;;;;1.80;1.00;;;13.60;60.10;;;;;;6245510;23;20027;-74
2023/04/08 02:12:24;;;;;;;2.70;1.63;;;13.50;60.10;;;;;;6245392;23;20000;-73
2023/04/08 02:14:50;;;;;;;2.20;1.10;;;13.50;60.20;;;;;;6245732;23;20000;-75
2023/04/08 02:17:16;;;;;;;1.77;1.10;;;13.50;60.20;;;;;;6245026;22;20352;-74
2023/04/08 02:20:14;;;;;;;2.15;1.10;;;13.50;60.20;;;;;;6245249;23;20051;-75
2023/04/08 02:22:52;;;;;;;2.58;1.20;;;13.40;60.00;;;;;;6245421;23;20011;-74
2023/04/08 02:25:23;;;;;;;1.98;1.13;;;13.30;60.20;;;;;;6245792;23;20007;-75
2023/04/08 02:27:50;;;;;;;1.98;0.93;;;13.30;60.30;;;;;;6245706;23;20026;-76
2023/04/08 02:30:17;;;;;;;4.95;1.17;;;13.20;60.30;;;;;;6245311;23;20004;-74
2023/04/08 02:32:45;;;;;;;2.65;1.13;;;13.10;60.50;;;;;;6245337;23;20105;-74
2023/04/08 02:35:12;;;;;;;2.88;1.10;;;13.10;60.80;;;;;;6245154;23;20019;-74
2023/04/08 02:37:38;;;;;;;3.65;1.10;;;13.00;61.00;;;;;;6245331;23;20012;-74
2023/04/08 02:40:04;;;;;;;2.05;0.88;;;13.00;61.30;;;;;;6218422;23;20318;-75
2023/04/08 02:42:29;;;;;;;3.20;1.52;;;12.90;61.50;;;;;;6219544;23;20012;-75
2023/04/08 02:44:56;;;;;;;2.80;1.30;;;12.90;61.70;;;;;;6248210;23;20000;-74
2023/04/08 02:47:22;;;;;;;4.18;1.45;;;12.90;61.80;;;;;;6245868;23;20080;-74
2023/04/08 02:49:51;;;;;;;2.85;1.15;;;12.90;61.80;;;;;;6245480;23;20024;-74
2023/04/08 02:52:17;;;;;;;2.40;1.02;;;12.90;61.30;;;;;;6244992;23;20004;-74
2023/04/08 02:54:42;;;;;;;2.40;1.10;;;12.90;61.40;;;;;;6245522;23;20357;-74
2023/04/08 02:57:08;;;;;;;2.78;1.20;;;12.90;61.30;;;;;;6245051;23;20012;-75
2023/04/08 02:59:36;;;;;;;2.95;1.30;;;12.90;61.00;;;;;;6245148;23;20071;-75
2023/04/08 03:02:02;;;;;;;4.55;1.30;;;12.90;61.00;;;;;;6245109;23;20004;-76
2023/04/08 03:04:27;;;;;;;1.35;1.00;;;12.90;60.80;;;;;;6245117;23;20074;-74
2023/04/08 03:06:53;;;;;;;3.13;1.17;;;12.80;60.70;;;;;;6245035;23;20000;-75
2023/04/08 03:09:19;;;;;;;3.58;1.35;;;12.90;60.80;;;;;;6245513;23;20046;-74
2023/04/08 03:11:51;;;;;;;3.50;1.45;;;12.90;61.00;;;;;;6245100;23;20000;-74
2023/04/08 03:14:17;;;;;;;5.85;1.52;;;13.00;61.30;;;;;;6244932;23;20472;-74
2023/04/08 03:16:42;;;;;;;4.40;1.50;;;13.00;61.60;;;;;;6244877;22;20015;-75
2023/04/08 03:19:08;;;;;;;7.53;1.73;;;12.90;61.90;;;;;;6218156;23;20470;-75
2023/04/08 03:21:34;;;;;;;4.75;1.40;;;12.90;62.60;;;;;;6245047;23;20004;-74
2023/04/08 03:23:59;;;;;;;1.92;1.10;;;12.90;63.20;;;;;;6244811;23;20003;-73
2023/04/08 03:26:26;;;;;;;4.63;1.35;;;12.80;63.90;;;;;;6245210;23;20105;-74
2023/04/08 03:28:52;;;;;;;4.25;1.40;;;12.80;64.20;;;;;;6246287;23;20434;-74
2023/04/08 03:31:20;;;;;;;3.05;1.40;;;12.70;64.80;;;;;;6244747;23;20000;-73
2023/04/08 03:33:45;;;;;;;5.82;1.50;;;12.60;65.40;;;;;;6244946;23;19996;-73
2023/04/08 03:36:11;;;;;;;3.20;1.40;;;12.40;66.10;;;;;;6244871;23;20011;-73
2023/04/08 03:38:37;;;;;;;2.30;1.40;;;12.30;66.70;;;;;;6245092;23;20000;-74
2023/04/08 03:41:03;;;;;;;5.68;1.70;;;12.20;68.00;;;;;;6244862;23;20019;-74
2023/04/08 03:43:28;;;;;;;6.28;2.00;;;12.10;68.70;;;;;;6244798;23;20003;-73
2023/04/08 03:45:55;;;;;;;5.15;1.80;;;12.00;69.70;;;;;;6244768;23;20000;-75
2023/04/08 03:48:21;;;;;;;4.38;1.88;;;12.00;69.60;;;;;;6245173;23;20034;-74
2023/04/08 03:50:47;;;;;;;3.35;1.90;;;12.00;70.40;;;;;;6244892;23;20004;-74
2023/04/08 03:53:13;;;;;;;6.20;2.10;;;12.00;70.30;;;;;;6244535;23;20393;-74
2023/04/08 03:55:39;;;;;;;5.03;2.00;;;12.00;70.80;;;;;;6244724;23;20007;-76
2023/04/08 03:58:04;;;;;;;4.43;1.83;;;11.90;71.40;;;;;;6244712;23;20028;-74
2023/04/08 04:00:30;;;;;;;4.43;1.92;;;11.80;71.30;;;;;;6217890;23;20054;-74
2023/04/08 04:02:56;;;;;;;4.65;2.00;;;11.80;71.80;;;;;;6244889;23;20089;-74
2023/04/08 04:05:22;;;;;;;4.05;2.00;;;11.80;72.00;;;;;;6244759;23;20007;-74
2023/04/08 04:07:47;;;;;;;4.38;2.20;;;11.90;72.30;;;;;;6217780;23;20008;-74
2023/04/08 04:10:13;;;;;;;6.20;2.40;;;11.90;72.00;;;;;;6244823;23;20000;-74
2023/04/08 04:12:39;;;;;;;5.13;2.47;;;11.80;72.00;;;;;;6244904;23;20094;-74
2023/04/08 04:15:05;;;;;;;5.28;2.38;;;11.80;72.30;;;;;;6217816;23;20008;-74
2023/04/08 04:17:31;;;;;;;4.85;2.20;;;11.80;72.40;;;;;;6244470;22;20020;-74
2023/04/08 04:19:57;;;;;;;5.43;2.20;;;11.80;72.20;;;;;;6244491;23;20329;-73
2023/04/08 04:22:22;;;;;;;6.55;2.35;;;11.90;72.10;;;;;;6244494;23;20330;-75
2023/04/08 04:24:48;;;;;;;5.00;2.30;;;11.90;72.00;;;;;;6244726;23;19996;-74
2023/04/08 04:27:16;;;;;;;3.88;2.30;;;11.90;72.00;;;;;;6244483;23;20082;-75
2023/04/08 04:29:42;;;;;;;5.80;2.30;;;11.90;72.30;;;;;;6217836;23;20008;-74
2023/04/08 04:32:08;;;;;;;5.95;2.10;;;11.70;72.40;;;;;;6244826;23;20334;-74
2023/04/08 04:34:34;;;;;;;4.47;2.35;;;11.70;72.50;;;;;;6246553;23;20008;-74
2023/04/08 04:36:59;;;;;;;5.40;2.40;;;11.70;72.40;;;;;;6247664;23;20012;-75
2023/04/08 04:39:25;;;;;;;4.88;2.17;;;11.60;72.40;;;;;;6249486;23;20004;-74
2023/04/08 04:41:51;;;;;;;6.13;2.50;;;11.60;72.30;;;;;;6247188;23;20376;-74
2023/04/08 04:44:16;;;;;;;4.10;2.30;;;11.60;72.00;;;;;;6246618;23;20001;-75
2023/04/08 04:46:42;;;;;;;8.00;2.75;;;11.70;71.70;;;;;;6219344;23;20456;-75
2023/04/08 04:49:08;;;;;;;5.53;2.35;;;11.60;71.30;;;;;;6246158;23;20076;-74
2023/04/08 04:51:33;;;;;;;5.05;2.70;;;11.60;71.30;;;;;;6246310;23;20000;-77
2023/04/08 04:53:59;;;;;;;4.43;2.50;;;11.50;71.40;;;;;;6219377;23;20054;-75
2023/04/08 04:56:26;;;;;;;5.80;2.55;;;11.40;71.40;;;;;;6246424;23;20043;-75
2023/04/08 04:58:51;;;;;;;5.10;2.42;;;11.30;71.10;;;;;;6246737;23;20146;-75
2023/04/08 05:01:17;;;;;;;4.15;2.40;;;11.20;71.20;;;;;;6246390;23;20043;-74
2023/04/08 05:03:43;;;;;;;4.50;2.50;;;11.00;71.70;;;;;;6246463;23;20000;-75
2023/04/08 05:06:08;;;;;;;6.25;2.75;;;10.90;71.60;;;;;;6219499;23;20004;-75
2023/04/08 05:08:34;;;;;;;5.05;2.90;;;10.90;72.70;;;;;;6246355;23;20010;-74
2023/04/08 05:11:01;;;;;;;6.35;2.42;;;10.80;73.80;;;;;;6246512;23;20023;-75
2023/04/08 05:13:31;;;;;;;5.25;2.53;;;10.80;73.70;;;;;;6246287;23;20003;-75
2023/04/08 05:15:57;;;;;;;4.60;2.85;;;10.90;74.00;;;;;;6245863;22;20042;-75
2023/04/08 05:18:22;;;;;;;5.78;3.20;;;11.00;73.90;;;;;;6246487;23;19997;-75
2023/04/08 05:20:48;;;;;;;5.30;2.60;;;11.00;73.20;;;;;;6246169;23;20437;-76
2023/04/08 05:23:14;;;;;;;5.30;2.90;;;10.90;73.60;;;;;;6246247;23;20000;-75
2023/04/08 05:25:40;;;;;;;4.80;3.20;;;11.00;74.10;;;;;;6246081;23;20000;-74
2023/04/08 05:28:06;;;;;;;4.70;2.65;;;11.00;74.20;;;;;;6246310;23;20008;-75
2023/04/08 05:30:31;;;;;;;5.22;2.42;;;10.90;74.10;;;;;;6246114;23;20075;-75
2023/04/08 05:32:57;;;;;;;4.82;2.58;;;10.90;73.90;;;;;;6246569;23;20086;-74
2023/04/08 05:35:23;;;;;;;4.88;2.60;;;10.90;74.00;;;;;;6245799;23;20007;-75
2023/04/08 05:37:48;;;;;;;11.70;2.60;;;10.90;74.30;;;;;;6245950;23;20049;-75
2023/04/08 05:40:14;;;;;;;4.90;2.72;;;10.90;74.60;;;;;;6246014;23;20081;-75
2023/04/08 05:42:41;;;;;;;5.07;2.40;;;10.90;74.50;;;;;;6245913;23;20012;-75
2023/04/08 05:45:08;;;;;;;5.35;2.38;;;10.90;74.60;;;;;;6245507;23;20434;-76
2023/04/08 05:47:34;;;;;;;6.80;2.40;;;11.00;75.00;;;;;;6246054;23;20000;-76
2023/04/08 05:50:00;;;;;;;5.40;2.75;;;11.10;75.30;;;;;;6245663;23;20004;-75
2023/04/08 05:52:25;;;;;;;6.68;3.10;;;11.00;74.60;;;;;;6246099;23;20070;-74
2023/04/08 05:54:51;;;;;;;4.32;2.15;;;11.10;74.60;;;;;;6245880;23;20000;-75
2023/04/08 05:57:16;;;;;;;5.82;2.20;;;11.00;74.60;;;;;;6245599;23;20012;-75
2023/04/08 05:59:42;;;;;;;5.38;2.50;;;11.00;74.60;;;;;;6245799;23;20000;-74
2023/04/08 06:02:08;;;;;;;5.05;2.58;;;11.00;74.50;;;;;;6245582;23;20000;-76
2023/04/08 06:04:34;;;;;;;5.25;2.63;;;11.00;74.50;;;;;;6245650;23;20000;-75
2023/04/08 06:07:01;;;;;;;5.65;3.28;;;10.90;75.10;;;;;;6245560;23;20478;-73
2023/04/08 06:09:27;;;;;;;5.72;3.13;;;11.00;75.30;;;;;;6218426;23;20008;-75
2023/04/08 06:11:53;;;;;;;6.50;3.17;;;10.90;75.70;;;;;;6245631;23;20058;-75
2023/04/08 06:14:19;;;;;;;5.85;3.05;;;10.80;76.60;;;;;;6245340;23;20419;-73
2023/04/08 06:16:45;;;;;;;5.28;3.00;;;10.70;76.90;;;;;;6245028;22;20016;-75
2023/04/08 06:19:11;;;;;;;3.72;2.20;;;10.60;77.10;;;;;;6245990;23;20011;-76
2023/04/08 06:21:36;;;;;;;4.60;2.20;;;10.70;77.40;;;;;;6245776;23;20028;-75
2023/04/08 06:24:02;;;;;;;6.13;2.58;;;10.70;77.20;;;;;;6245839;23;19996;-75
2023/04/08 06:26:28;;;;;;;5.53;2.65;;;10.70;76.70;;;;;;6245494;23;20032;-74
2023/04/08 06:28:53;;;;;;;5.85;2.70;;;10.70;77.20;;;;;;6245044;23;20326;-75
2023/04/08 06:31:19;;;;;;;6.15;2.85;;;10.70;77.00;;;;;;6245060;23;20063;-74
2023/04/08 06:33:45;;;;;;;6.28;3.10;;;10.60;77.20;;;;;;6247031;23;19996;-74
2023/04/08 06:36:12;;;;;;;7.57;2.88;;;10.60;79.20;;;;;;6247457;23;20004;-73
2023/04/08 06:38:38;;;;;;;5.15;2.80;;;10.60;79.00;;;;;;6245623;23;20007;-74
2023/04/08 06:41:07;;;;;;;4.30;2.40;;;10.50;78.80;;;;;;6245386;23;20046;-74
2023/04/08 06:43:34;;;;;;;4.43;2.22;;;10.50;78.70;;;;;;6245219;23;20038;-75
2023/04/08 06:46:00;;;;;;;3.58;1.83;;;10.50;78.00;;;;;;6247424;23;20004;-72
2023/04/08 06:48:32;;;;;;;6.85;2.15;;;10.50;78.20;;;;;;6245588;23;20326;-74
2023/04/08 06:51:00;;;;;;;3.25;1.98;;;10.50;78.10;;;;;;6245072;23;20015;-76
2023/04/08 06:53:31;;;;;;;12.50;2.70;;;10.50;78.20;;;;;;6244926;23;20063;-76
2023/04/08 06:55:57;;;;;;;3.50;1.60;;;10.50;77.90;;;;;;6244957;23;20000;-74
2023/04/08 06:58:23;;;;;;;3.35;1.85;;;10.50;78.20;;;;;;6244233;23;20062;-75
2023/04/08 07:00:48;;;;;;;4.25;1.60;;;10.50;78.80;;;;;;6217810;23;20100;-76
2023/04/08 07:03:14;;;;;;;4.38;2.10;;;10.40;78.80;;;;;;6244994;23;20000;-76
2023/04/08 07:05:41;;;;;;;3.60;2.20;;;10.40;79.10;;;;;;6217908;23;20082;-75
2023/04/08 07:08:07;;;;;;;5.32;1.80;;;10.30;78.60;;;;;;6244527;23;20008;-75
2023/04/08 07:10:36;;;;;;;3.47;1.77;;;10.50;79.10;;;;;;6217801;23;20004;-78
2023/04/08 07:13:02;;;;;;;4.80;1.95;;;10.50;78.40;;;;;;6245049;23;20067;-76
2023/04/08 07:15:27;;;;;;;2.28;1.48;;;10.60;77.80;;;;;;6244845;23;20031;-75
2023/04/08 07:17:55;;;;;;;5.47;1.35;;;10.70;77.60;;;;;;6244277;22;20016;-75
2023/04/08 07:20:21;;;;;;;2.22;1.27;;;10.70;77.30;;;;;;6244763;23;20058;-77
2023/04/08 07:22:47;;;;;;;2.42;1.35;;;10.80;76.90;;;;;;6244799;23;20036;-74
2023/04/08 07:25:13;;;;;;;3.15;1.45;;;10.90;76.20;;;;;;6244631;23;20000;-75
2023/04/08 07:27:39;;;;;;;3.50;1.75;;;10.90;76.10;;;;;;6217319;23;20430;-76
2023/04/08 07:30:07;;;;;;;3.83;1.45;;;10.90;75.50;;;;;;6244600;23;20030;-77
2023/04/08 07:32:33;;;;;;;2.83;1.50;;;10.90;76.30;;;;;;6244474;23;20008;-76
2023/04/08 07:35:00;;;;;;;2.20;1.20;;;10.90;75.00;;;;;;6217722;23;20000;-76
2023/04/08 07:37:26;;;;;;;2.83;1.50;;;11.00;74.00;;;;;;6217179;23;20469;-76
2023/04/08 07:39:52;;;;;;;2.22;1.45;;;11.20;73.70;;;;;;6244316;23;20003;-75
2023/04/08 07:42:17;;;;;;;2.45;1.35;;;11.10;73.40;;;;;;6244875;23;20004;-78
2023/04/08 07:44:45;;;;;;;2.92;1.50;;;11.20;73.30;;;;;;6244650;23;20461;-76
2023/04/08 07:47:11;;;;;;;3.33;1.35;;;11.10;72.90;;;;;;6245186;23;20012;-77
2023/04/08 07:49:37;;;;;;;4.25;1.50;;;11.00;72.80;;;;;;6245695;23;20068;-75
2023/04/08 07:52:04;;;;;;;2.28;1.20;;;11.10;72.70;;;;;;6244545;23;20438;-78
2023/04/08 07:54:33;;;;;;;2.05;1.23;;;11.10;72.40;;;;;;6244351;23;20075;-75
2023/04/08 07:56:59;;;;;;;4.43;2.00;;;11.30;72.70;;;;;;6243811;23;20079;-76
2023/04/08 07:59:24;;;;;;;3.45;1.48;;;11.40;72.70;;;;;;6217393;23;20154;-77
2023/04/08 08:01:50;;;;;;;2.42;1.02;;;11.40;72.30;;;;;;6244543;23;20046;-75
2023/04/08 08:04:16;;;;;;;4.65;1.40;;;11.40;72.20;;;;;;6244046;23;19996;-77
2023/04/08 08:06:42;;;;;;;2.03;1.20;;;11.30;72.10;;;;;;6244209;23;20000;-77
2023/04/08 08:09:08;;;;;;;3.13;1.58;;;11.30;71.90;;;;;;6245249;23;20110;-77
2023/04/08 08:11:34;;;;;;;3.42;1.75;;;11.40;72.00;;;;;;6246295;23;20425;-76
2023/04/08 08:13:59;;;;;;;3.08;1.40;;;11.50;72.00;;;;;;6246871;23;20429;-78
2023/04/08 08:16:29;;;;;;;1.70;1.08;;;11.60;71.70;;;;;;6246860;22;20043;-77
2023/04/08 08:18:55;;;;;;;4.25;1.40;;;11.60;71.30;;;;;;6219664;23;20340;-74
2023/04/08 08:21:20;;;;;;;3.33;1.45;;;11.50;71.00;;;;;;6246090;23;20004;-75
2023/04/08 08:23:46;;;;;;;3.40;1.08;;;11.60;71.30;;;;;;6246378;23;20007;-77
2023/04/08 08:26:12;;;;;;;2.70;0.90;;;11.70;71.30;;;;;;6247156;23;20322;-75
2023/04/08 08:28:39;;;;;;;3.58;1.08;;;11.70;70.80;;;;;;6250080;23;20000;-75
2023/04/08 08:31:05;;;;;;;1.80;1.10;;;11.70;70.10;;;;;;6247500;23;20000;-76
2023/04/08 08:33:31;;;;;;;2.38;1.10;;;11.70;70.70;;;;;;6246126;23;20004;-76
2023/04/08 08:35:57;;;;;;;1.73;0.95;;;11.70;70.00;;;;;;6246651;23;20067;-77
2023/04/08 08:38:24;;;;;;;3.05;1.48;;;11.80;70.00;;;;;;6246389;23;20031;-77
2023/04/08 08:40:57;;;;;;;2.45;1.00;;;11.90;69.80;;;;;;6246015;23;20383;-75
2023/04/08 08:43:27;;;;;;;2.93;1.30;;;11.90;69.80;;;;;;6218730;23;20524;-77
2023/04/08 08:45:53;;;;;;;2.38;1.20;;;12.00;70.10;;;;;;6245614;23;20498;-75
2023/04/08 08:48:19;;;;;;;3.75;1.17;;;12.10;69.90;;;;;;6245606;23;20007;-75
2023/04/08 08:50:45;;;;;;;2.35;1.17;;;12.10;69.80;;;;;;6245663;23;20000;-76
2023/04/08 08:53:11;;;;;;;3.22;1.60;;;12.20;69.70;;;;;;6245377;23;20027;-74
2023/04/08 08:55:38;;;;;;;2.10;1.20;;;12.30;69.80;;;;;;6245464;23;20004;-74
2023/04/08 08:58:06;;;;;;;3.80;1.52;;;12.40;69.30;;;;;;6245621;23;20026;-75
2023/04/08 09:00:41;;;;;;;1.67;0.80;;;12.40;69.50;;;;;;6245746;23;20008;-76
2023/04/08 09:03:20;;;;;;;2.67;1.33;;;12.60;69.40;;;;;;6245936;23;20004;-76
2023/04/08 09:05:48;;;;;;;2.08;1.17;;;12.60;69.00;;;;;;6245769;23;20008;-74
2023/04/08 09:08:30;;;;;;;1.40;1.02;;;12.70;69.30;;;;;;6246105;23;20035;-76
2023/04/08 09:11:16;;;;;;;1.50;1.10;;;12.80;69.10;;;;;;6245432;23;20015;-76
2023/04/08 09:13:43;;;;;;;2.72;1.20;;;12.90;68.90;;;;;;6245549;23;20003;-77
2023/04/08 09:16:11;;;;;;;2.42;1.20;;;13.00;68.80;;;;;;6245587;22;20016;-76
2023/04/08 09:18:38;;;;;;;3.70;1.27;;;13.10;69.00;;;;;;6218749;23;20020;-77
2023/04/08 09:21:05;;;;;;;2.05;0.80;;;13.30;68.40;;;;;;6245438;23;20363;-75
2023/04/08 09:23:48;;;;;;;1.52;0.90;;;13.30;67.20;;;;;;6245587;23;20067;-75
2023/04/08 09:26:17;;;;;;;2.05;1.25;;;13.30;67.90;;;;;;6245621;23;20004;-77
2023/04/08 09:28:56;;;;;;;2.78;1.10;;;13.30;67.10;;;;;;6245730;23;20431;-75
2023/04/08 09:31:24;;;;;;;2.45;0.90;;;13.40;67.30;;;;;;6245718;23;20008;-75
2023/04/08 09:33:52;;;;;;;2.35;1.10;;;13.40;66.90;;;;;;6218706;23;20016;-75
2023/04/08 09:36:18;;;;;;;3.08;1.25;;;13.50;66.60;;;;;;6245341;23;20004;-76
2023/04/08 09:38:45;;;;;;;3.92;1.30;;;13.60;66.80;;;;;;6218858;23;20012;-76
2023/04/08 09:41:23;;;;;;;3.78;1.50;;;13.70;66.80;;;;;;6245812;23;20408;-75
2023/04/08 09:43:59;;;;;;;2.90;1.30;;;13.80;66.30;;;;;;6245671;23;20001;-76
2023/04/08 09:46:31;;;;;;;2.25;1.30;;;13.90;65.50;;;;;;6245541;23;20407;-77
2023/04/08 09:49:08;;;;;;;3.50;1.23;;;14.00;64.90;;;;;;6245129;23;20034;-76
2023/04/08 09:51:44;;;;;;;2.83;1.15;;;14.20;64.60;;;;;;6245491;23;20023;-75
2023/04/08 09:54:21;;;;;;;3.13;1.20;;;14.40;63.70;;;;;;6245377;23;20011;-75
2023/04/08 09:56:58;;;;;;;5.00;1.40;;;14.50;63.40;;;;;;6245283;23;20012;-74
2023/04/08 09:59:29;;;;;;;2.88;1.40;;;14.70;63.30;;;;;;6245130;23;20004;-76
2023/04/08 10:01:57;;;;;;;2.65;1.27;;;14.90;62.90;;;;;;6245080;23;20010;-74
2023/04/08 10:04:25;;;;;;;2.70;1.40;;;15.00;62.60;;;;;;6245266;23;20000;-77
2023/04/08 10:06:59;;;;;;;4.95;1.05;;;15.20;62.30;;;;;;6245903;23;20346;-77
2023/04/08 10:09:26;;;;;;;2.00;1.05;;;15.30;61.60;;;;;;6245350;23;20000;-76
2023/04/08 10:11:53;;;;;;;1.00;0.80;;;15.40;61.30;;;;;;6245452;23;20008;-75
2023/04/08 10:14:21;;;;;;;2.72;1.30;;;15.40;60.40;;;;;;6245279;23;20422;-77
2023/04/08 10:16:46;;;;;;;5.40;1.45;;;15.40;60.50;;;;;;6245378;22;20028;-75
2023/04/08 10:19:39;;;;;;;3.20;1.25;;;15.50;60.30;;;;;;6246098;23;20326;-74
2023/04/08 10:22:45;;;;;;;2.55;1.20;;;15.70;60.00;;;;;;6247887;23;20009;-75
2023/04/08 10:25:46;;;;;;;3.53;1.40;;;15.80;59.80;;;;;;6247786;23;20004;-76
2023/04/08 10:28:18;;;;;;;1.88;1.15;;;15.80;59.90;;;;;;6245298;23;19996;-73
2023/04/08 10:30:50;;;;;;;2.85;1.40;;;15.70;59.60;;;;;;6245024;23;20071;-76
2023/04/08 10:33:29;;;;;;;2.47;1.13;;;15.60;59.50;;;;;;6245394;23;20452;-75
2023/04/08 10:36:10;;;;;;;3.58;1.20;;;15.50;59.40;;;;;;6218293;23;20043;-75
2023/04/08 10:38:36;;;;;;;3.53;1.10;;;15.40;59.40;;;;;;6244997;23;20032;-75
2023/04/08 10:41:01;;;;;;;1.85;1.10;;;15.40;59.30;;;;;;6218668;23;20505;-75
2023/04/08 10:43:34;;;;;;;2.45;1.17;;;15.30;59.20;;;;;;6245047;23;20011;-75
2023/04/08 10:46:00;;;;;;;1.20;1.00;;;15.20;59.00;;;;;;6244840;23;20000;-75
2023/04/08 10:48:29;;;;;;;5.20;1.08;;;15.10;59.00;;;;;;6244560;23;20405;-74
2023/04/08 10:51:00;;;;;;;2.75;1.20;;;15.10;59.30;;;;;;6244670;23;20055;-75
2023/04/08 10:53:31;;;;;;;1.88;1.10;;;15.10;59.10;;;;;;6244484;23;20012;-75
2023/04/08 10:56:14;;;;;;;2.85;1.30;;;15.20;58.50;;;;;;6244602;23;20159;-74
2023/04/08 10:58:55;;;;;;;1.70;1.17;;;15.30;58.00;;;;;;6245037;23;20448;-75
2023/04/08 11:01:21;;;;;;;2.25;1.23;;;15.50;58.00;;;;;;6244871;23;19997;-77
2023/04/08 11:03:48;;;;;;;2.13;1.08;;;15.50;57.90;;;;;;6244806;23;20004;-75
2023/04/08 11:06:14;;;;;;;1.65;1.00;;;15.60;57.80;;;;;;6244895;23;20001;-75
2023/04/08 11:08:40;;;;;;;1.95;1.10;;;15.60;57.60;;;;;;6244733;23;19996;-75
2023/04/08 11:11:07;;;;;;;2.22;1.27;;;15.60;57.60;;;;;;6217560;23;20094;-76
2023/04/08 11:13:35;;;;;;;2.00;1.10;;;15.70;57.60;;;;;;6217927;23;20445;-75
2023/04/08 11:16:03;;;;;;;3.28;1.10;;;15.70;57.50;;;;;;6217844;22;20450;-74
2023/04/08 11:18:30;;;;;;;2.45;1.40;;;15.60;57.40;;;;;;6244640;23;20446;-74
2023/04/08 11:20:57;;;;;;;2.50;1.35;;;15.50;57.70;;;;;;6244707;23;20007;-76
2023/04/08 11:23:24;;;;;;;5.65;1.80;;;15.50;58.00;;;;;;6244396;23;20000;-76
2023/04/08 11:25:51;;;;;;;2.97;1.52;;;15.40;58.00;;;;;;6244484;23;20019;-74
2023/04/08 11:28:17;;;;;;;3.40;1.48;;;15.30;58.50;;;;;;6244166;23;20001;-75
2023/04/08 11:30:44;;;;;;;2.78;1.60;;;15.30;58.70;;;;;;6244631;23;20012;-73
2023/04/08 11:33:09;;;;;;;3.85;1.40;;;15.20;58.90;;;;;;6244454;23;20073;-75
2023/04/08 11:35:40;;;;;;;2.10;1.23;;;15.10;59.20;;;;;;6244608;23;20000;-76
2023/04/08 11:38:06;;;;;;;5.70;1.80;;;15.10;59.80;;;;;;6217160;23;20020;-75
2023/04/08 11:40:32;;;;;;;2.80;1.60;;;15.00;60.10;;;;;;6244321;23;20426;-75
2023/04/08 11:42:58;;;;;;;3.85;1.75;;;14.90;60.70;;;;;;6244200;23;20011;-75
2023/04/08 11:45:24;;;;;;;3.08;1.38;;;14.80;60.90;;;;;;6244512;23;20338;-78
2023/04/08 11:47:50;;;;;;;2.30;1.17;;;14.80;60.90;;;;;;6244853;23;20491;-76
2023/04/08 11:50:28;;;;;;;3.65;1.60;;;14.70;60.90;;;;;;6244339;23;20030;-75
2023/04/08 11:52:54;;;;;;;3.00;1.20;;;14.60;61.80;;;;;;6244582;23;20082;-75
2023/04/08 11:55:27;;;;;;;2.20;1.35;;;14.70;61.70;;;;;;6244727;23;20089;-75
2023/04/08 11:57:54;;;;;;;2.65;1.40;;;14.70;62.70;;;;;;6217844;23;20051;-77
2023/04/08 12:00:21;;;;;;;2.78;1.42;;;14.60;62.30;;;;;;6245265;23;20050;-76
2023/04/08 12:02:47;;;;;;;4.80;1.80;;;14.50;62.70;;;;;;6244937;23;20003;-75
2023/04/08 12:05:16;;;;;;;2.00;1.08;;;14.60;63.80;;;;;;6217460;23;20005;-75
2023/04/08 12:07:42;;;;;;;3.47;1.30;;;14.50;62.70;;;;;;6244648;23;20311;-76
2023/04/08 12:10:10;;;;;;;4.18;1.55;;;14.50;63.00;;;;;;6244167;23;19996;-75
2023/04/08 12:12:36;;;;;;;3.25;1.60;;;14.50;62.70;;;;;;6244533;23;20083;-75
2023/04/08 12:15:02;;;;;;;4.43;2.03;;;14.60;63.10;;;;;;6244607;23;20000;-76
2023/04/08 12:17:28;;;;;;;2.75;1.50;;;14.60;63.60;;;;;;6245653;22;20046;-76
2023/04/08 12:19:54;;;;;;;3.60;1.70;;;14.60;62.90;;;;;;6247617;23;19996;-75
2023/04/08 12:22:20;;;;;;;2.58;1.35;;;14.60;63.10;;;;;;6245851;23;20004;-76
2023/04/08 12:24:45;;;;;;;4.72;1.35;;;14.60;63.20;;;;;;6244390;23;20130;-76
2023/04/08 12:27:11;;;;;;;2.92;1.60;;;14.50;63.90;;;;;;6244195;23;20000;-74
2023/04/08 12:29:37;;;;;;;4.97;1.88;;;14.60;64.20;;;;;;6244180;23;20474;-75
2023/04/08 12:32:04;;;;;;;4.60;1.80;;;14.60;64.00;;;;;;6244133;23;20109;-75
2023/04/08 12:34:30;;;;;;;2.47;1.33;;;14.70;64.20;;;;;;6243861;23;20004;-74
2023/04/08 12:36:56;;;;;;;3.28;1.67;;;14.70;63.60;;;;;;6243964;23;20134;-75
2023/04/08 12:39:22;;;;;;;3.50;1.70;;;14.80;63.50;;;;;;6244301;23;19997;-75
2023/04/08 12:41:47;;;;;;;2.63;1.42;;;14.80;63.80;;;;;;6243867;23;20462;-74
2023/04/08 12:44:13;;;;;;;2.67;1.48;;;14.90;63.30;;;;;;6244470;23;20000;-76
2023/04/08 12:46:39;;;;;;;3.22;1.52;;;14.80;63.50;;;;;;6244381;23;20004;-75
2023/04/08 12:49:05;;;;;;;2.88;1.58;;;14.80;63.20;;;;;;6244784;23;20000;-74
2023/04/08 12:51:31;;;;;;;4.45;1.88;;;14.80;63.40;;;;;;6244301;23;20004;-77